Alamogordo White Sands Regional Airport
KALM : now visible

Airfield :











YOU CAN JOIN US ON...

 
LOGIN :

Register | Disclaimer

   EN    FR    IT 

 









Legend :    VFR   Marginal VFR   IFR   Intensive IFR   Very Intensive IFR
Visi :
Ceiling :
>= 8 km
>= 3000ft
5 to 8 km
1000 to 3000 ft
1500m to 5 km
500 to 1000 ft
800 to 1500m
200 to 500 ft
< 800m
< 200 ft
Symbols :   Thunderstorms  Fog  Heavy snow  Heavy precipitations  Wind > 20 kt






- Airport Elevation : 4200 ft
- IATA code : ALM


KALM - Alamogordo White Sands Regional

CURRENT METAR :
  • 090535Z AUTO 11003KT 10SM CLR 16/M02 A3006 RMK AO2

EXPIRED METARs :
  • 090515Z AUTO 11005KT 10SM CLR 17/M01 A3007 RMK AO2
  • 090455Z AUTO 14008KT 10SM CLR 16/00 A3008 RMK AO2
  • 090435Z AUTO 14007KT 10SM CLR 17/00 A3008 RMK AO2
  • 090415Z AUTO 15006KT 10SM CLR 17/00 A3009 RMK AO2
  • 090355Z AUTO 14008KT 10SM CLR 16/00 A3008 RMK AO2
  • 090335Z AUTO 14008KT 10SM CLR 17/00 A3008 RMK AO2
  • 090315Z AUTO 14005KT 10SM CLR 18/M02 A3008 RMK AO2
  • 090255Z AUTO 00000KT 10SM CLR 19/M03 A3008 RMK AO2
  • 090235Z AUTO 00000KT 10SM CLR 18/M02 A3007 RMK AO2

TAF N/A



MET'MAP, your aeronautical weather chart ! - Copyright ORBIFLY December 2007 - Disclaimer

ORBIFLY MET'MAP TEAM :

Programming & Development : Alexandra Zaïnal
Concept & original design : Baudouin d'Aumeries
Assistance for programming : Marc-Olivier Méhu
Technical & hardware support : Manuel Goepfert

Contact : metmap@orbifly.com




SOURCES & CREDITS :

   NOAA       Earth
Advisory